sensor_id;sensor_type;location;lat;lon;timestamp;pressure;altitude;pressure_sealevel;temperature;humidity
1926;BME280;964;42.606;23.588;2023-07-29T00:01:55;94381.94;;;37.79;23.40
1926;BME280;964;42.606;23.588;2023-07-29T00:04:21;94386.59;;;37.58;23.17
1926;BME280;964;42.606;23.588;2023-07-29T00:06:48;94389.16;;;37.56;23.12
1926;BME280;964;42.606;23.588;2023-07-29T00:09:14;94396.63;;;37.74;23.54
1926;BME280;964;42.606;23.588;2023-07-29T00:11:41;94395.78;;;37.66;23.29
1926;BME280;964;42.606;23.588;2023-07-29T00:14:08;94394.53;;;38.33;22.59
1926;BME280;964;42.606;23.588;2023-07-29T00:16:35;94392.16;;;38.37;22.58
1926;BME280;964;42.606;23.588;2023-07-29T00:19:03;94397.28;;;38.19;22.71
1926;BME280;964;42.606;23.588;2023-07-29T00:21:30;94392.84;;;38.03;22.92
1926;BME280;964;42.606;23.588;2023-07-29T00:23:56;94398.06;;;38.07;22.99
1926;BME280;964;42.606;23.588;2023-07-29T00:26:23;94397.06;;;38.31;22.75
1926;BME280;964;42.606;23.588;2023-07-29T00:28:51;94392.78;;;38.56;22.55
1926;BME280;964;42.606;23.588;2023-07-29T00:31:18;94399.00;;;38.22;22.82
1926;BME280;964;42.606;23.588;2023-07-29T00:33:44;94396.25;;;38.09;22.66
1926;BME280;964;42.606;23.588;2023-07-29T00:36:12;94395.38;;;38.27;22.46
1926;BME280;964;42.606;23.588;2023-07-29T00:38:39;94396.22;;;37.70;22.95
1926;BME280;964;42.606;23.588;2023-07-29T00:41:05;94397.69;;;37.39;23.02
1926;BME280;964;42.606;23.588;2023-07-29T00:43:33;94392.47;;;37.36;23.69
1926;BME280;964;42.606;23.588;2023-07-29T00:46:00;94387.84;;;38.02;23.26
1926;BME280;964;42.606;23.588;2023-07-29T00:48:27;94385.78;;;38.15;22.63
1926;BME280;964;42.606;23.588;2023-07-29T00:50:54;94386.00;;;38.31;22.78
1926;BME280;964;42.606;23.588;2023-07-29T00:53:22;94389.50;;;38.57;22.28
1926;BME280;964;42.606;23.588;2023-07-29T00:55:49;94381.09;;;37.84;23.10
1926;BME280;964;42.606;23.588;2023-07-29T00:58:16;94378.31;;;37.58;23.19
1926;BME280;964;42.606;23.588;2023-07-29T01:00:42;94384.09;;;37.41;23.27
1926;BME280;964;42.606;23.588;2023-07-29T01:03:09;94383.41;;;37.22;23.86
1926;BME280;964;42.606;23.588;2023-07-29T01:05:42;94384.34;;;37.11;24.24
1926;BME280;964;42.606;23.588;2023-07-29T01:08:19;94383.00;;;36.99;24.36
1926;BME280;964;42.606;23.588;2023-07-29T01:10:55;94387.47;;;36.83;24.81
1926;BME280;964;42.606;23.588;2023-07-29T01:13:28;94386.47;;;36.68;25.24
1926;BME280;964;42.606;23.588;2023-07-29T01:16:01;94389.28;;;36.81;24.89
1926;BME280;964;42.606;23.588;2023-07-29T01:18:31;94392.41;;;36.53;24.57
1926;BME280;964;42.606;23.588;2023-07-29T01:20:59;94388.00;;;36.45;24.65
1926;BME280;964;42.606;23.588;2023-07-29T01:23:29;94381.66;;;36.87;24.30
1926;BME280;964;42.606;23.588;2023-07-29T01:25:56;94375.91;;;36.85;24.51
1926;BME280;964;42.606;23.588;2023-07-29T01:28:23;94382.41;;;37.06;24.13
1926;BME280;964;42.606;23.588;2023-07-29T01:30:55;94377.66;;;37.52;23.14
1926;BME280;964;42.606;23.588;2023-07-29T01:33:26;94379.50;;;37.75;23.76
1926;BME280;964;42.606;23.588;2023-07-29T01:35:57;94382.72;;;37.48;23.47
1926;BME280;964;42.606;23.588;2023-07-29T01:38:29;94391.38;;;37.57;23.76
1926;BME280;964;42.606;23.588;2023-07-29T01:41:00;94385.47;;;37.34;24.00
1926;BME280;964;42.606;23.588;2023-07-29T01:43:27;94388.41;;;36.73;24.65
1926;BME280;964;42.606;23.588;2023-07-29T01:45:54;94399.44;;;36.35;24.57
1926;BME280;964;42.606;23.588;2023-07-29T01:48:21;94394.63;;;36.17;25.39
1926;BME280;964;42.606;23.588;2023-07-29T01:50:48;94388.47;;;36.06;25.51
1926;BME280;964;42.606;23.588;2023-07-29T01:53:14;94390.81;;;35.96;25.34
1926;BME280;964;42.606;23.588;2023-07-29T01:55:43;94387.91;;;36.13;25.05
1926;BME280;964;42.606;23.588;2023-07-29T01:58:10;94392.72;;;36.31;24.84
1926;BME280;964;42.606;23.588;2023-07-29T02:00:37;94393.31;;;35.75;25.48
1926;BME280;964;42.606;23.588;2023-07-29T02:03:03;94395.56;;;35.77;25.54
1926;BME280;964;42.606;23.588;2023-07-29T02:05:30;94390.94;;;35.85;25.24
1926;BME280;964;42.606;23.588;2023-07-29T02:07:56;94396.84;;;36.19;25.37
1926;BME280;964;42.606;23.588;2023-07-29T02:10:23;94398.84;;;36.43;24.82
1926;BME280;964;42.606;23.588;2023-07-29T02:12:51;94397.94;;;36.34;25.57
1926;BME280;964;42.606;23.588;2023-07-29T02:15:17;94387.25;;;36.44;24.52
1926;BME280;964;42.606;23.588;2023-07-29T02:17:44;94398.88;;;35.94;25.55
1926;BME280;964;42.606;23.588;2023-07-29T02:20:11;94403.19;;;35.89;25.62
1926;BME280;964;42.606;23.588;2023-07-29T02:22:38;94400.19;;;35.33;25.93
1926;BME280;964;42.606;23.588;2023-07-29T02:25:05;94395.16;;;35.37;25.48
1926;BME280;964;42.606;23.588;2023-07-29T02:27:32;94412.88;;;35.12;25.98
1926;BME280;964;42.606;23.588;2023-07-29T02:30:00;94401.53;;;35.81;24.87
1926;BME280;964;42.606;23.588;2023-07-29T02:32:26;94403.00;;;35.52;25.81
1926;BME280;964;42.606;23.588;2023-07-29T02:34:53;94401.06;;;35.17;25.63
1926;BME280;964;42.606;23.588;2023-07-29T02:37:19;94408.09;;;35.18;26.24
1926;BME280;964;42.606;23.588;2023-07-29T02:39:46;94409.03;;;35.26;25.99
1926;BME280;964;42.606;23.588;2023-07-29T02:42:13;94407.34;;;35.48;25.27
1926;BME280;964;42.606;23.588;2023-07-29T02:44:40;94404.59;;;35.12;26.30
1926;BME280;964;42.606;23.588;2023-07-29T02:47:08;94406.41;;;35.04;25.93
1926;BME280;964;42.606;23.588;2023-07-29T02:49:34;94404.59;;;35.96;25.30
1926;BME280;964;42.606;23.588;2023-07-29T02:52:01;94395.19;;;35.62;24.93
1926;BME280;964;42.606;23.588;2023-07-29T02:54:27;94400.78;;;35.21;25.89
1926;BME280;964;42.606;23.588;2023-07-29T02:56:54;94402.31;;;34.81;26.40
1926;BME280;964;42.606;23.588;2023-07-29T02:59:21;94400.25;;;34.87;26.50
1926;BME280;964;42.606;23.588;2023-07-29T03:01:47;94402.63;;;35.07;26.28
1926;BME280;964;42.606;23.588;2023-07-29T03:04:16;94392.94;;;35.30;25.88
1926;BME280;964;42.606;23.588;2023-07-29T03:06:42;94400.22;;;35.28;26.14
1926;BME280;964;42.606;23.588;2023-07-29T03:09:09;94410.50;;;35.27;26.15
1926;BME280;964;42.606;23.588;2023-07-29T03:11:36;94404.16;;;35.68;25.55
1926;BME280;964;42.606;23.588;2023-07-29T03:14:02;94406.47;;;35.88;25.70
1926;BME280;964;42.606;23.588;2023-07-29T03:16:29;94412.59;;;36.00;25.15
1926;BME280;964;42.606;23.588;2023-07-29T03:18:55;94413.28;;;36.30;24.77
1926;BME280;964;42.606;23.588;2023-07-29T03:21:24;94414.44;;;36.59;25.17
1926;BME280;964;42.606;23.588;2023-07-29T03:23:50;94412.44;;;36.78;24.56
1926;BME280;964;42.606;23.588;2023-07-29T03:26:17;94418.25;;;36.56;24.62
1926;BME280;964;42.606;23.588;2023-07-29T03:28:44;94421.97;;;36.40;24.60
1926;BME280;964;42.606;23.588;2023-07-29T03:31:11;94429.09;;;36.29;24.73
1926;BME280;964;42.606;23.588;2023-07-29T03:33:37;94425.81;;;36.74;24.81
1926;BME280;964;42.606;23.588;2023-07-29T03:36:04;94413.91;;;37.16;23.77
1926;BME280;964;42.606;23.588;2023-07-29T03:38:32;94419.59;;;37.05;24.26
1926;BME280;964;42.606;23.588;2023-07-29T03:41:00;94414.41;;;37.47;23.78
1926;BME280;964;42.606;23.588;2023-07-29T03:43:28;94415.41;;;37.17;23.45
1926;BME280;964;42.606;23.588;2023-07-29T03:45:54;94423.44;;;36.65;24.30
1926;BME280;964;42.606;23.588;2023-07-29T03:48:21;94423.31;;;36.52;24.45
1926;BME280;964;42.606;23.588;2023-07-29T03:50:48;94415.56;;;36.69;25.08
1926;BME280;964;42.606;23.588;2023-07-29T03:53:14;94417.72;;;36.38;24.87
1926;BME280;964;42.606;23.588;2023-07-29T03:55:43;94415.25;;;36.72;24.39
1926;BME280;964;42.606;23.588;2023-07-29T03:58:12;94417.94;;;37.15;23.93
1926;BME280;964;42.606;23.588;2023-07-29T04:00:38;94416.75;;;37.43;24.37
1926;BME280;964;42.606;23.588;2023-07-29T04:03:05;94412.81;;;37.83;23.85
1926;BME280;964;42.606;23.588;2023-07-29T04:05:32;94412.16;;;37.90;23.76
1926;BME280;964;42.606;23.588;2023-07-29T04:07:58;94410.09;;;37.96;23.41
1926;BME280;964;42.606;23.588;2023-07-29T04:10:25;94400.50;;;38.23;23.01
1926;BME280;964;42.606;23.588;2023-07-29T04:12:53;94407.50;;;38.38;22.86
1926;BME280;964;42.606;23.588;2023-07-29T04:15:20;94410.16;;;38.30;23.16
1926;BME280;964;42.606;23.588;2023-07-29T04:17:46;94416.53;;;38.64;22.98
1926;BME280;964;42.606;23.588;2023-07-29T04:20:13;94415.56;;;38.75;22.96
1926;BME280;964;42.606;23.588;2023-07-29T04:22:40;94407.47;;;39.11;22.29
1926;BME280;964;42.606;23.588;2023-07-29T04:25:07;94402.06;;;39.05;22.28
1926;BME280;964;42.606;23.588;2023-07-29T04:27:33;94413.84;;;38.85;22.23
1926;BME280;964;42.606;23.588;2023-07-29T04:30:01;94409.69;;;38.79;22.38
1926;BME280;964;42.606;23.588;2023-07-29T04:32:28;94415.75;;;38.90;21.88
1926;BME280;964;42.606;23.588;2023-07-29T04:34:55;94402.84;;;38.93;22.43
1926;BME280;964;42.606;23.588;2023-07-29T04:37:21;94416.94;;;39.15;22.14
1926;BME280;964;42.606;23.588;2023-07-29T04:39:48;94409.44;;;39.23;22.06
1926;BME280;964;42.606;23.588;2023-07-29T04:42:17;94419.88;;;39.31;22.38
1926;BME280;964;42.606;23.588;2023-07-29T04:44:44;94412.94;;;39.03;22.64
1926;BME280;964;42.606;23.588;2023-07-29T04:47:12;94411.09;;;39.40;22.29
1926;BME280;964;42.606;23.588;2023-07-29T04:49:38;94410.47;;;39.54;22.54
1926;BME280;964;42.606;23.588;2023-07-29T04:52:05;94414.53;;;39.53;22.83
1926;BME280;964;42.606;23.588;2023-07-29T04:54:32;94413.72;;;39.45;22.50
1926;BME280;964;42.606;23.588;2023-07-29T04:56:59;94418.25;;;39.77;21.80
1926;BME280;964;42.606;23.588;2023-07-29T04:59:25;94416.88;;;40.19;21.97
1926;BME280;964;42.606;23.588;2023-07-29T05:01:52;94417.91;;;40.08;21.95
1926;BME280;964;42.606;23.588;2023-07-29T05:04:20;94425.06;;;40.25;21.80
1926;BME280;964;42.606;23.588;2023-07-29T05:06:47;94426.63;;;40.41;21.47
1926;BME280;964;42.606;23.588;2023-07-29T05:09:14;94428.22;;;40.57;21.20
1926;BME280;964;42.606;23.588;2023-07-29T05:11:41;94434.00;;;40.31;21.62
1926;BME280;964;42.606;23.588;2023-07-29T05:14:09;94440.34;;;40.10;21.95
1926;BME280;964;42.606;23.588;2023-07-29T05:16:35;94430.28;;;40.64;21.67
1926;BME280;964;42.606;23.588;2023-07-29T05:20:49;94473.47;;;35.12;26.64
1926;BME280;964;42.606;23.588;2023-07-29T05:23:16;94467.47;;;36.03;25.51
1926;BME280;964;42.606;23.588;2023-07-29T05:25:42;94462.69;;;36.33;25.17
1926;BME280;964;42.606;23.588;2023-07-29T05:28:09;94462.00;;;36.89;24.42
1926;BME280;964;42.606;23.588;2023-07-29T05:30:35;94460.22;;;37.10;24.74
1926;BME280;964;42.606;23.588;2023-07-29T05:33:05;94445.09;;;37.49;23.84
1926;BME280;964;42.606;23.588;2023-07-29T05:35:33;94452.47;;;37.72;23.95
1926;BME280;964;42.606;23.588;2023-07-29T05:38:01;94444.78;;;37.97;23.90
1926;BME280;964;42.606;23.588;2023-07-29T05:40:28;94442.03;;;38.10;23.63
1926;BME280;964;42.606;23.588;2023-07-29T05:42:55;94442.00;;;38.63;23.27
1926;BME280;964;42.606;23.588;2023-07-29T05:45:22;94444.81;;;38.50;23.17
1926;BME280;964;42.606;23.588;2023-07-29T05:47:49;94446.94;;;39.04;22.95
1926;BME280;964;42.606;23.588;2023-07-29T05:50:15;94454.16;;;39.20;22.65
1926;BME280;964;42.606;23.588;2023-07-29T05:52:42;94454.47;;;39.16;22.65
1926;BME280;964;42.606;23.588;2023-07-29T05:55:10;94452.31;;;39.22;22.37
1926;BME280;964;42.606;23.588;2023-07-29T05:57:37;94454.72;;;39.05;22.52
1926;BME280;964;42.606;23.588;2023-07-29T06:00:05;94447.09;;;39.53;21.92
1926;BME280;964;42.606;23.588;2023-07-29T06:02:31;94453.69;;;39.91;22.24
1926;BME280;964;42.606;23.588;2023-07-29T06:04:58;94449.19;;;40.09;21.95
1926;BME280;964;42.606;23.588;2023-07-29T06:07:25;94458.66;;;39.85;22.19
1926;BME280;964;42.606;23.588;2023-07-29T06:09:55;94457.88;;;39.64;22.28
1926;BME280;964;42.606;23.588;2023-07-29T06:12:26;94458.69;;;40.42;21.49
1926;BME280;964;42.606;23.588;2023-07-29T06:14:53;94452.63;;;40.51;21.15
1926;BME280;964;42.606;23.588;2023-07-29T06:17:19;94459.03;;;40.74;20.97
1926;BME280;964;42.606;23.588;2023-07-29T06:19:46;94447.25;;;41.47;20.92
1926;BME280;964;42.606;23.588;2023-07-29T06:22:12;94446.53;;;41.85;20.65
1926;BME280;964;42.606;23.588;2023-07-29T06:24:39;94446.34;;;41.68;20.58
1926;BME280;964;42.606;23.588;2023-07-29T06:27:06;94453.47;;;41.18;20.36
1926;BME280;964;42.606;23.588;2023-07-29T06:29:34;94441.50;;;41.68;20.67
1926;BME280;964;42.606;23.588;2023-07-29T06:32:00;94424.44;;;42.02;20.26
1926;BME280;964;42.606;23.588;2023-07-29T06:34:27;94426.28;;;41.99;20.47
1926;BME280;964;42.606;23.588;2023-07-29T06:36:54;94426.63;;;42.34;19.92
1926;BME280;964;42.606;23.588;2023-07-29T06:39:20;94418.47;;;42.83;20.25
1926;BME280;964;42.606;23.588;2023-07-29T06:41:47;94420.09;;;43.02;19.43
1926;BME280;964;42.606;23.588;2023-07-29T06:44:13;94409.50;;;43.25;20.06
1926;BME280;964;42.606;23.588;2023-07-29T06:46:41;94413.50;;;43.46;19.42
1926;BME280;964;42.606;23.588;2023-07-29T06:49:11;94417.81;;;43.08;19.68
1926;BME280;964;42.606;23.588;2023-07-29T06:51:38;94409.47;;;43.32;19.77
1926;BME280;964;42.606;23.588;2023-07-29T06:54:04;94412.78;;;43.14;19.61
1926;BME280;964;42.606;23.588;2023-07-29T06:56:31;94411.19;;;43.77;19.30
1926;BME280;964;42.606;23.588;2023-07-29T06:58:57;94414.38;;;43.99;19.55
1926;BME280;964;42.606;23.588;2023-07-29T07:01:24;94400.47;;;44.33;19.46
1926;BME280;964;42.606;23.588;2023-07-29T07:03:52;94403.06;;;44.82;18.53
1926;BME280;964;42.606;23.588;2023-07-29T07:06:20;94396.66;;;44.04;19.38
1926;BME280;964;42.606;23.588;2023-07-29T07:08:47;94396.19;;;44.32;19.04
1926;BME280;964;42.606;23.588;2023-07-29T07:11:13;94396.31;;;44.17;19.09
1926;BME280;964;42.606;23.588;2023-07-29T07:13:40;94389.03;;;44.38;18.88
1926;BME280;964;42.606;23.588;2023-07-29T07:16:07;94393.75;;;45.24;18.53
1926;BME280;964;42.606;23.588;2023-07-29T07:18:33;94383.47;;;44.82;18.58
1926;BME280;964;42.606;23.588;2023-07-29T07:21:01;94383.00;;;45.30;17.75
1926;BME280;964;42.606;23.588;2023-07-29T07:23:28;94391.72;;;44.46;18.82
1926;BME280;964;42.606;23.588;2023-07-29T07:25:55;94393.72;;;45.51;17.92
1926;BME280;964;42.606;23.588;2023-07-29T07:28:21;94394.13;;;45.74;17.81
1926;BME280;964;42.606;23.588;2023-07-29T07:30:48;94393.97;;;45.09;17.99
1926;BME280;964;42.606;23.588;2023-07-29T07:33:14;94390.19;;;45.50;18.30
1926;BME280;964;42.606;23.588;2023-07-29T07:35:41;94395.25;;;45.71;18.23
1926;BME280;964;42.606;23.588;2023-07-29T07:38:09;94388.53;;;45.83;18.20
1926;BME280;964;42.606;23.588;2023-07-29T07:40:36;94387.75;;;46.58;17.63
1926;BME280;964;42.606;23.588;2023-07-29T07:43:03;94392.75;;;46.30;17.99
1926;BME280;964;42.606;23.588;2023-07-29T07:45:29;94381.78;;;47.02;16.47
1926;BME280;964;42.606;23.588;2023-07-29T07:47:58;94388.66;;;47.30;16.62
1926;BME280;964;42.606;23.588;2023-07-29T07:50:24;94384.22;;;47.36;16.91
1926;BME280;964;42.606;23.588;2023-07-29T07:52:51;94386.06;;;47.53;16.89
1926;BME280;964;42.606;23.588;2023-07-29T07:55:19;94385.59;;;47.26;17.47
1926;BME280;964;42.606;23.588;2023-07-29T07:57:45;94381.25;;;47.75;17.81
1926;BME280;964;42.606;23.588;2023-07-29T08:00:13;94391.56;;;47.41;16.43
1926;BME280;964;42.606;23.588;2023-07-29T08:02:41;94377.47;;;47.20;16.76
1926;BME280;964;42.606;23.588;2023-07-29T08:05:07;94390.78;;;47.60;16.15
1926;BME280;964;42.606;23.588;2023-07-29T08:07:34;94387.81;;;47.08;16.59
1926;BME280;964;42.606;23.588;2023-07-29T08:10:01;94377.50;;;47.82;17.39
1926;BME280;964;42.606;23.588;2023-07-29T08:12:29;94380.19;;;46.99;16.83
1926;BME280;964;42.606;23.588;2023-07-29T08:14:55;94369.66;;;47.49;16.08
1926;BME280;964;42.606;23.588;2023-07-29T08:17:22;94375.72;;;47.05;16.75
1926;BME280;964;42.606;23.588;2023-07-29T08:19:49;94379.44;;;47.48;16.01
1926;BME280;964;42.606;23.588;2023-07-29T08:22:15;94382.31;;;46.60;17.05
1926;BME280;964;42.606;23.588;2023-07-29T08:24:42;94371.78;;;48.01;16.59
1926;BME280;964;42.606;23.588;2023-07-29T08:27:09;94376.84;;;47.31;16.74
1926;BME280;964;42.606;23.588;2023-07-29T08:29:37;94375.41;;;48.13;15.59
1926;BME280;964;42.606;23.588;2023-07-29T08:32:04;94374.44;;;47.99;16.67
1926;BME280;964;42.606;23.588;2023-07-29T08:34:31;94371.25;;;47.93;15.64
1926;BME280;964;42.606;23.588;2023-07-29T08:36:57;94375.69;;;48.38;15.28
1926;BME280;964;42.606;23.588;2023-07-29T08:39:25;94366.53;;;48.71;15.44
1926;BME280;964;42.606;23.588;2023-07-29T08:41:57;94369.59;;;48.42;14.82
1926;BME280;964;42.606;23.588;2023-07-29T08:44:26;94365.97;;;48.08;14.95
1926;BME280;964;42.606;23.588;2023-07-29T08:46:59;94361.78;;;48.52;15.02
1926;BME280;964;42.606;23.588;2023-07-29T08:49:26;94370.81;;;47.87;15.37
1926;BME280;964;42.606;23.588;2023-07-29T08:51:53;94356.94;;;47.08;16.25
1926;BME280;964;42.606;23.588;2023-07-29T08:54:21;94359.41;;;47.63;16.48
1926;BME280;964;42.606;23.588;2023-07-29T08:56:48;94352.72;;;48.75;15.68
1926;BME280;964;42.606;23.588;2023-07-29T08:59:15;94356.22;;;48.63;15.54
1926;BME280;964;42.606;23.588;2023-07-29T09:01:43;94345.63;;;49.41;14.86
1926;BME280;964;42.606;23.588;2023-07-29T09:04:11;94345.84;;;49.22;14.71
1926;BME280;964;42.606;23.588;2023-07-29T09:06:39;94340.69;;;49.65;14.78
1926;BME280;964;42.606;23.588;2023-07-29T09:09:07;94340.44;;;49.03;14.88
1926;BME280;964;42.606;23.588;2023-07-29T09:11:34;94338.41;;;48.94;14.32
1926;BME280;964;42.606;23.588;2023-07-29T09:14:01;94338.66;;;48.75;14.47
1926;BME280;964;42.606;23.588;2023-07-29T09:16:28;94342.34;;;48.89;15.24
1926;BME280;964;42.606;23.588;2023-07-29T09:18:55;94339.72;;;49.37;13.85
1926;BME280;964;42.606;23.588;2023-07-29T09:21:24;94337.53;;;48.47;15.18
1926;BME280;964;42.606;23.588;2023-07-29T09:23:52;94344.56;;;47.11;15.60
1926;BME280;964;42.606;23.588;2023-07-29T09:26:22;94327.47;;;48.32;14.91
1926;BME280;964;42.606;23.588;2023-07-29T09:28:51;94322.72;;;49.58;15.05
1926;BME280;964;42.606;23.588;2023-07-29T09:31:19;94328.97;;;49.69;14.08
1926;BME280;964;42.606;23.588;2023-07-29T09:33:46;94325.25;;;49.78;13.95
1926;BME280;964;42.606;23.588;2023-07-29T09:36:13;94324.06;;;50.18;13.92
1926;BME280;964;42.606;23.588;2023-07-29T09:38:42;94329.94;;;49.38;14.32
1926;BME280;964;42.606;23.588;2023-07-29T09:41:12;94332.38;;;49.32;13.87
1926;BME280;964;42.606;23.588;2023-07-29T09:43:39;94327.22;;;49.05;14.56
1926;BME280;964;42.606;23.588;2023-07-29T09:46:06;94320.34;;;49.67;14.16
1926;BME280;964;42.606;23.588;2023-07-29T09:48:33;94330.34;;;48.88;14.50
1926;BME280;964;42.606;23.588;2023-07-29T09:51:09;94315.44;;;49.90;13.61
1926;BME280;964;42.606;23.588;2023-07-29T09:53:39;94313.34;;;50.39;13.87
1926;BME280;964;42.606;23.588;2023-07-29T09:56:08;94298.56;;;51.58;13.87
1926;BME280;964;42.606;23.588;2023-07-29T09:58:34;94303.41;;;50.64;13.01
1926;BME280;964;42.606;23.588;2023-07-29T10:01:03;94303.78;;;50.33;13.35
1926;BME280;964;42.606;23.588;2023-07-29T10:03:31;94310.59;;;50.16;13.43
1926;BME280;964;42.606;23.588;2023-07-29T10:06:00;94307.69;;;50.39;13.41
1926;BME280;964;42.606;23.588;2023-07-29T10:08:29;94293.38;;;50.99;12.13
1926;BME280;964;42.606;23.588;2023-07-29T10:10:58;94297.13;;;50.65;12.65
1926;BME280;964;42.606;23.588;2023-07-29T10:13:27;94291.84;;;51.10;12.29
1926;BME280;964;42.606;23.588;2023-07-29T10:15:54;94287.94;;;50.90;12.38
1926;BME280;964;42.606;23.588;2023-07-29T10:18:22;94294.38;;;50.53;12.85
1926;BME280;964;42.606;23.588;2023-07-29T10:20:50;94285.00;;;51.40;12.96
1926;BME280;964;42.606;23.588;2023-07-29T10:23:18;94299.94;;;50.15;13.13
1926;BME280;964;42.606;23.588;2023-07-29T10:25:50;94287.88;;;50.76;12.54
1926;BME280;964;42.606;23.588;2023-07-29T10:28:20;94286.22;;;51.37;12.51
1926;BME280;964;42.606;23.588;2023-07-29T10:30:51;94277.75;;;50.85;13.53
1926;BME280;964;42.606;23.588;2023-07-29T10:33:18;94270.09;;;51.54;12.29
1926;BME280;964;42.606;23.588;2023-07-29T10:35:45;94262.03;;;52.18;12.01
1926;BME280;964;42.606;23.588;2023-07-29T10:38:12;94274.66;;;50.17;12.76
1926;BME280;964;42.606;23.588;2023-07-29T10:40:46;94255.97;;;51.81;12.14
1926;BME280;964;42.606;23.588;2023-07-29T10:43:19;94258.25;;;52.57;12.24
1926;BME280;964;42.606;23.588;2023-07-29T10:45:46;94250.31;;;53.31;11.38
1926;BME280;964;42.606;23.588;2023-07-29T10:48:44;94243.41;;;53.03;12.18
1926;BME280;964;42.606;23.588;2023-07-29T10:51:24;94236.06;;;52.67;11.97
1926;BME280;964;42.606;23.588;2023-07-29T10:53:55;94239.41;;;53.08;11.43
1926;BME280;964;42.606;23.588;2023-07-29T10:56:26;94237.38;;;53.11;11.99
1926;BME280;964;42.606;23.588;2023-07-29T10:58:55;94239.56;;;52.36;13.25
1926;BME280;964;42.606;23.588;2023-07-29T11:01:27;94229.69;;;53.13;12.05
1926;BME280;964;42.606;23.588;2023-07-29T11:04:26;94234.22;;;51.99;12.83
1926;BME280;964;42.606;23.588;2023-07-29T11:07:22;94217.28;;;53.05;13.43
1926;BME280;964;42.606;23.588;2023-07-29T11:09:55;94229.81;;;52.55;12.51
1926;BME280;964;42.606;23.588;2023-07-29T11:12:42;94233.25;;;50.58;12.82
1926;BME280;964;42.606;23.588;2023-07-29T11:15:24;94222.56;;;52.81;12.95
1926;BME280;964;42.606;23.588;2023-07-29T11:17:52;94229.69;;;50.32;13.47
1926;BME280;964;42.606;23.588;2023-07-29T11:20:22;94232.53;;;50.07;13.86
1926;BME280;964;42.606;23.588;2023-07-29T11:22:49;94227.03;;;50.87;13.16
1926;BME280;964;42.606;23.588;2023-07-29T11:25:17;94218.22;;;51.90;12.49
1926;BME280;964;42.606;23.588;2023-07-29T11:27:45;94216.38;;;52.39;12.90
1926;BME280;964;42.606;23.588;2023-07-29T11:30:13;94212.31;;;51.02;12.80
1926;BME280;964;42.606;23.588;2023-07-29T11:32:41;94219.25;;;51.26;13.04
1926;BME280;964;42.606;23.588;2023-07-29T11:35:09;94209.28;;;52.38;13.73
1926;BME280;964;42.606;23.588;2023-07-29T11:37:39;94209.34;;;51.82;13.32
1926;BME280;964;42.606;23.588;2023-07-29T11:40:06;94204.84;;;52.96;12.35
1926;BME280;964;42.606;23.588;2023-07-29T11:42:36;94198.63;;;53.82;12.79
1926;BME280;964;42.606;23.588;2023-07-29T11:45:03;94202.63;;;53.26;12.28
1926;BME280;964;42.606;23.588;2023-07-29T11:47:32;94206.22;;;52.34;12.60
1926;BME280;964;42.606;23.588;2023-07-29T11:50:01;94200.84;;;51.96;12.24
1926;BME280;964;42.606;23.588;2023-07-29T11:52:28;94199.94;;;52.07;12.36
1926;BME280;964;42.606;23.588;2023-07-29T11:54:57;94191.34;;;52.79;11.91
1926;BME280;964;42.606;23.588;2023-07-29T11:57:23;94191.06;;;53.04;11.99
1926;BME280;964;42.606;23.588;2023-07-29T11:59:50;94185.50;;;53.91;12.15
1926;BME280;964;42.606;23.588;2023-07-29T12:02:20;94187.47;;;52.88;12.44
1926;BME280;964;42.606;23.588;2023-07-29T12:04:47;94180.34;;;53.34;11.97
1926;BME280;964;42.606;23.588;2023-07-29T12:07:16;94179.84;;;53.40;12.01
1926;BME280;964;42.606;23.588;2023-07-29T12:09:44;94182.59;;;54.24;11.35
1926;BME280;964;42.606;23.588;2023-07-29T12:12:12;94174.66;;;53.85;11.56
1926;BME280;964;42.606;23.588;2023-07-29T12:14:43;94173.50;;;52.92;12.13
1926;BME280;964;42.606;23.588;2023-07-29T12:17:10;94180.75;;;52.79;12.43
1926;BME280;964;42.606;23.588;2023-07-29T12:19:38;94170.63;;;52.29;12.31
1926;BME280;964;42.606;23.588;2023-07-29T12:22:06;94177.59;;;52.58;12.74
1926;BME280;964;42.606;23.588;2023-07-29T12:24:35;94169.31;;;52.46;12.50
1926;BME280;964;42.606;23.588;2023-07-29T12:27:02;94165.38;;;52.84;11.72
1926;BME280;964;42.606;23.588;2023-07-29T12:29:30;94159.84;;;52.26;11.96
1926;BME280;964;42.606;23.588;2023-07-29T12:31:58;94153.59;;;52.59;11.84
1926;BME280;964;42.606;23.588;2023-07-29T12:34:27;94149.97;;;52.11;12.08
1926;BME280;964;42.606;23.588;2023-07-29T12:36:54;94157.09;;;52.12;12.92
1926;BME280;964;42.606;23.588;2023-07-29T12:39:23;94155.75;;;51.84;12.57
1926;BME280;964;42.606;23.588;2023-07-29T12:41:51;94171.72;;;50.04;13.46
1926;BME280;964;42.606;23.588;2023-07-29T12:44:18;94165.28;;;51.63;12.94
1926;BME280;964;42.606;23.588;2023-07-29T12:46:46;94158.09;;;52.79;12.78
1926;BME280;964;42.606;23.588;2023-07-29T12:49:13;94150.47;;;53.49;12.87
1926;BME280;964;42.606;23.588;2023-07-29T12:51:40;94146.59;;;53.93;12.89
1926;BME280;964;42.606;23.588;2023-07-29T12:54:07;94148.41;;;53.67;12.18
1926;BME280;964;42.606;23.588;2023-07-29T12:56:34;94149.59;;;53.28;12.62
1926;BME280;964;42.606;23.588;2023-07-29T12:59:01;94137.94;;;54.62;11.82
1926;BME280;964;42.606;23.588;2023-07-29T13:01:28;94153.34;;;52.68;12.33
1926;BME280;964;42.606;23.588;2023-07-29T13:03:57;94175.75;;;51.04;12.54
1926;BME280;964;42.606;23.588;2023-07-29T13:06:23;94166.00;;;50.41;13.08
1926;BME280;964;42.606;23.588;2023-07-29T13:08:50;94166.09;;;50.82;12.94
1926;BME280;964;42.606;23.588;2023-07-29T13:11:17;94169.44;;;51.46;12.49
1926;BME280;964;42.606;23.588;2023-07-29T13:13:43;94165.47;;;51.24;13.17
1926;BME280;964;42.606;23.588;2023-07-29T13:16:11;94156.06;;;51.06;13.11
1926;BME280;964;42.606;23.588;2023-07-29T13:18:37;94171.16;;;49.94;13.30
1926;BME280;964;42.606;23.588;2023-07-29T13:21:06;94180.03;;;49.40;13.37
1926;BME280;964;42.606;23.588;2023-07-29T13:23:32;94176.63;;;50.03;13.46
1926;BME280;964;42.606;23.588;2023-07-29T13:25:59;94185.47;;;49.73;13.42
1926;BME280;964;42.606;23.588;2023-07-29T13:28:26;94183.78;;;49.93;12.94